Romulus, MI (48174)

2:23 AM EST on December 10, 2016 (GMT -0500)
Near I-94/275 | | Change Station

Elev 679 ft 42.22 °N, 83.40 °W | Updated 3 seconds ago

Snow
Snow
24.6 °F
Feels Like 25 °F
N
2.0
Wind Variable Wind from WSW
Gusts 2.0 mph

Today
High -- | Low -- °F
--% Chance of Precip.
Yesterday
High -- | Low -- °F
Precip. -- in
Pressure 30.45 in
Visibility 7.0 miles
Clouds Few 2000 ft
Scattered Clouds 4000 ft
Overcast 6000 ft
Windchill 25 °F
Dew Point 22 °F
Humidity 88%
Rainfall 0.00 in
Snow Depth Not available.
7:51 AM 5:01 PM
Waxing Gibbous, 81% visible
METAR KDTW 100653Z 25011KT 7SM -SN FEW020 SCT040 OVC060 M04/M07 A3042 RMK AO2 SLP309 P0000 T10391067
Pressure 30.45 in
Visibility 7.0 miles
Clouds Few 2000 ft
Scattered Clouds 4000 ft
Overcast 6000 ft
Windchill 25 °F
Dew Point 22 °F
Humidity 88%
Rainfall 0.00 in
Snow Depth Not available.
7:51 AM 5:01 PM
Waxing Gibbous, 81% visible
METAR KDTW 100653Z 25011KT 7SM -SN FEW020 SCT040 OVC060 M04/M07 A3042 RMK AO2 SLP309 P0000 T10391067

10-Day Weather Forecast

Almanac

Astronomy

Dec. 10, 2016 Rise Set
Actual Time
Civil Twilight
Nautical Twilight
Astronomical Twilight
Moon
Length of Visible Light
Length of Day
Tomorrow will be .
, % of the Moon is Illuminated

Today's Extremes

State Highs State Lows

Community

WunderPhotos

Upload Photos

1,956,527 photos uploaded!

WunderBlog® & News

Nearby

Air Quality

  Air Quality AQ Index Pollutant
Not available.

Snow Depth

Station Depth Elevation

Earthquake Activity

City Distance Mag. Time & Date
Minimum magnitude displayed is 2.5.

Coastal Water Temperatures

Place Temperature

Stations

Nearby Weather Stations

Station Location Temp. Windchill Dew Point Humidity Wind Precip. Elev Updated Type
                   

Watches & Warnings

There are currently no watches in effect.